createdAt,value
2018-01-27T00:00:58.403Z,92.54
2018-01-27T00:02:00.891Z,92.84
2018-01-27T00:03:03.363Z,93.20
2018-01-27T00:04:05.831Z,93.60
2018-01-27T00:05:08.304Z,93.67
2018-01-27T00:06:10.779Z,93.62
2018-01-27T00:07:13.297Z,93.62
2018-01-27T00:08:16.221Z,93.74
2018-01-27T00:09:18.687Z,93.93
2018-01-27T00:10:21.146Z,92.57
2018-01-27T00:11:23.629Z,91.14
2018-01-27T00:12:26.119Z,90.98
2018-01-27T00:13:28.582Z,91.04
2018-01-27T00:14:31.061Z,91.05
2018-01-27T00:15:33.540Z,91.13
2018-01-27T00:16:36.017Z,90.78
2018-01-27T00:17:38.515Z,90.52
2018-01-27T00:18:40.998Z,91.29
2018-01-27T00:19:43.489Z,91.75
2018-01-27T00:20:45.969Z,91.89
2018-01-27T00:21:48.510Z,91.04
2018-01-27T00:22:52.852Z,91.07
2018-01-27T00:23:55.315Z,91.87
2018-01-27T00:24:57.824Z,92.07
2018-01-27T00:26:00.295Z,92.29
2018-01-27T00:27:02.762Z,92.55
2018-01-27T00:28:05.300Z,92.75
2018-01-27T00:29:07.775Z,92.32
2018-01-27T00:30:10.235Z,91.92
2018-01-27T00:31:12.716Z,92.11
2018-01-27T00:32:15.191Z,91.90
2018-01-27T00:33:17.654Z,92.07
2018-01-27T00:34:20.136Z,92.11
2018-01-27T00:35:22.706Z,92.11
2018-01-27T00:36:25.189Z,92.29
2018-01-27T00:37:27.668Z,92.29
2018-01-27T00:38:30.152Z,92.05
2018-01-27T00:39:32.638Z,91.56
2018-01-27T00:40:35.106Z,91.66
2018-01-27T00:41:37.591Z,91.64
2018-01-27T00:42:40.074Z,91.56
2018-01-27T00:43:42.538Z,91.75
2018-01-27T00:44:45.017Z,91.65
2018-01-27T00:45:47.492Z,91.74
2018-01-27T00:46:49.963Z,91.63
2018-01-27T00:47:52.426Z,91.25
2018-01-27T00:48:54.890Z,90.70
2018-01-27T00:49:57.354Z,90.41
2018-01-27T00:50:59.882Z,90.46
2018-01-27T00:52:02.350Z,90.65
2018-01-27T00:53:04.881Z,90.97
2018-01-27T00:54:07.347Z,91.15
2018-01-27T00:55:09.814Z,90.22
2018-01-27T00:56:12.298Z,89.85
2018-01-27T00:57:14.768Z,90.16
2018-01-27T00:58:17.239Z,90.60
2018-01-27T00:59:19.738Z,90.59
2018-01-27T01:00:22.224Z,90.27
2018-01-27T01:01:24.771Z,90.39
2018-01-27T01:02:27.258Z,90.76
2018-01-27T01:03:29.722Z,91.11
2018-01-27T01:04:32.201Z,91.43
2018-01-27T01:05:34.684Z,91.08
2018-01-27T01:06:37.168Z,89.60
2018-01-27T01:07:39.650Z,89.54
2018-01-27T01:08:42.127Z,89.18
2018-01-27T01:09:44.594Z,89.40
2018-01-27T01:10:47.058Z,88.97
2018-01-27T01:11:49.527Z,88.59
2018-01-27T01:12:52.017Z,88.85
2018-01-27T01:13:54.486Z,88.77
2018-01-27T01:14:56.969Z,88.90
2018-01-27T01:15:59.460Z,89.52
2018-01-27T01:17:01.933Z,89.80
2018-01-27T01:18:04.397Z,89.86
2018-01-27T01:19:06.863Z,89.72
2018-01-27T01:20:09.342Z,89.01
2018-01-27T01:21:11.829Z,89.18
2018-01-27T01:22:14.296Z,89.58
2018-01-27T01:23:16.786Z,89.42
2018-01-27T01:24:19.255Z,89.91
2018-01-27T01:25:21.735Z,89.42
2018-01-27T01:26:24.199Z,89.34
2018-01-27T01:27:26.662Z,88.91
2018-01-27T01:28:29.128Z,89.25
2018-01-27T01:29:31.586Z,89.25
2018-01-27T01:30:34.098Z,89.55
2018-01-27T01:31:36.575Z,89.55
2018-01-27T01:32:39.042Z,89.86
2018-01-27T01:33:41.510Z,89.48
2018-01-27T01:34:43.970Z,89.76
2018-01-27T01:35:46.444Z,90.10
2018-01-27T01:36:48.925Z,90.13
2018-01-27T01:37:51.501Z,89.71
2018-01-27T01:38:53.967Z,90.04
2018-01-27T01:39:56.426Z,89.95
2018-01-27T01:40:58.891Z,89.13
2018-01-27T01:42:01.355Z,89.36
2018-01-27T01:43:09.441Z,89.76
2018-01-27T01:44:17.415Z,89.63
2018-01-27T01:45:19.897Z,89.36
2018-01-27T01:46:22.377Z,89.25
2018-01-27T01:47:24.839Z,89.16
2018-01-27T01:48:27.316Z,89.49
2018-01-27T01:49:29.792Z,89.59
2018-01-27T01:50:32.273Z,89.72
2018-01-27T01:51:34.738Z,89.90
2018-01-27T01:52:37.211Z,90.29
2018-01-27T01:53:39.688Z,90.65
2018-01-27T01:54:42.155Z,91.33
2018-01-27T01:55:44.623Z,91.79
2018-01-27T01:56:47.102Z,91.65
2018-01-27T01:57:49.568Z,91.40
2018-01-27T01:58:52.035Z,91.66
2018-01-27T01:59:54.498Z,91.70
2018-01-27T02:00:56.976Z,91.70
2018-01-27T02:01:59.442Z,91.65
2018-01-27T02:03:01.907Z,91.74
2018-01-27T02:04:04.388Z,91.49
2018-01-27T02:05:06.850Z,91.52
2018-01-27T02:06:09.329Z,91.34
2018-01-27T02:07:11.806Z,91.16
2018-01-27T02:08:14.274Z,91.14
2018-01-27T02:09:16.743Z,91.26
2018-01-27T02:10:19.211Z,91.34
2018-01-27T02:11:21.671Z,91.39
2018-01-27T02:12:24.138Z,91.51
2018-01-27T02:13:26.610Z,90.70
2018-01-27T02:14:29.195Z,90.31
2018-01-27T02:15:31.677Z,90.50
2018-01-27T02:16:34.184Z,90.84
2018-01-27T02:17:36.642Z,90.73
2018-01-27T02:18:39.107Z,90.93
2018-01-27T02:19:41.585Z,91.15
2018-01-27T02:20:44.069Z,91.29
2018-01-27T02:21:46.546Z,91.37
2018-01-27T02:22:49.050Z,91.53
2018-01-27T02:23:51.517Z,91.68
2018-01-27T02:24:53.996Z,91.97
2018-01-27T02:25:56.458Z,92.26
2018-01-27T02:26:58.939Z,92.41
2018-01-27T02:28:01.424Z,92.65
2018-01-27T02:29:03.913Z,92.77
2018-01-27T02:30:06.393Z,92.69
2018-01-27T02:31:08.918Z,92.71
2018-01-27T02:32:11.363Z,92.75
2018-01-27T02:33:13.834Z,92.89
2018-01-27T02:34:16.317Z,93.00
2018-01-27T02:35:18.793Z,93.09
2018-01-27T02:36:21.260Z,93.02
2018-01-27T02:37:23.748Z,92.90
2018-01-27T02:38:26.214Z,92.87
2018-01-27T02:39:28.678Z,92.94
2018-01-27T02:40:31.147Z,93.04
2018-01-27T02:41:33.709Z,92.79
2018-01-27T02:42:36.179Z,92.02
2018-01-27T02:43:38.645Z,91.56
2018-01-27T02:44:41.106Z,91.51
2018-01-27T02:45:43.584Z,91.22
2018-01-27T02:46:46.065Z,91.35
2018-01-27T02:47:48.540Z,91.62
2018-01-27T02:48:51.021Z,91.83
2018-01-27T02:49:53.497Z,92.12
2018-01-27T02:50:55.967Z,92.24
2018-01-27T02:51:58.453Z,92.28
2018-01-27T02:53:00.932Z,92.22
2018-01-27T02:54:03.413Z,91.82
2018-01-27T02:55:05.884Z,90.93
2018-01-27T02:56:08.377Z,89.87
2018-01-27T02:57:10.883Z,88.96
2018-01-27T02:58:13.356Z,88.81
2018-01-27T02:59:15.833Z,88.89
2018-01-27T03:00:18.313Z,89.11
2018-01-27T03:01:20.782Z,89.01
2018-01-27T03:02:23.275Z,89.27
2018-01-27T03:03:25.756Z,89.15
2018-01-27T03:04:28.218Z,88.81
2018-01-27T03:05:30.702Z,88.93
2018-01-27T03:06:33.178Z,89.65
2018-01-27T03:07:35.643Z,89.75
2018-01-27T03:08:38.117Z,89.65
2018-01-27T03:09:40.578Z,90.04
2018-01-27T03:10:43.058Z,90.51
2018-01-27T03:11:45.526Z,90.71
2018-01-27T03:12:48.009Z,90.67
2018-01-27T03:13:50.493Z,90.14
2018-01-27T03:14:52.976Z,90.06
2018-01-27T03:15:55.453Z,89.76
2018-01-27T03:16:57.910Z,89.73
2018-01-27T03:18:00.393Z,89.89
2018-01-27T03:19:02.868Z,89.94
2018-01-27T03:20:05.349Z,89.91
2018-01-27T03:21:07.829Z,90.19
2018-01-27T03:22:10.304Z,90.04
2018-01-27T03:23:12.777Z,89.86
2018-01-27T03:24:15.260Z,89.78
2018-01-27T03:25:17.741Z,90.19
2018-01-27T03:26:20.224Z,90.27
2018-01-27T03:27:22.692Z,91.14
2018-01-27T03:28:25.173Z,90.86
2018-01-27T03:29:27.638Z,90.50
2018-01-27T03:30:30.119Z,90.38
2018-01-27T03:31:32.636Z,90.31
2018-01-27T03:32:35.125Z,90.25
2018-01-27T03:33:37.605Z,90.31
2018-01-27T03:34:40.084Z,90.42
2018-01-27T03:35:42.557Z,90.38
2018-01-27T03:36:45.023Z,90.34
2018-01-27T03:37:47.492Z,90.67
2018-01-27T03:38:49.958Z,90.73
2018-01-27T03:39:52.451Z,90.78
2018-01-27T03:40:54.925Z,89.88
2018-01-27T03:41:57.395Z,89.72
2018-01-27T03:42:59.873Z,90.01
2018-01-27T03:44:02.339Z,90.19
2018-01-27T03:45:04.824Z,90.49
2018-01-27T03:46:07.287Z,90.91
2018-01-27T03:47:09.752Z,91.10
2018-01-27T03:48:12.230Z,90.95
2018-01-27T03:49:14.694Z,90.56
2018-01-27T03:50:17.193Z,90.12
2018-01-27T03:51:19.663Z,90.00
2018-01-27T03:52:22.153Z,89.89
2018-01-27T03:53:24.633Z,90.12
2018-01-27T03:54:27.113Z,90.08
2018-01-27T03:55:29.578Z,89.44
2018-01-27T03:56:32.046Z,89.44
2018-01-27T03:57:34.520Z,89.58
2018-01-27T03:58:37.028Z,89.76
2018-01-27T03:59:39.486Z,89.78
2018-01-27T04:00:41.961Z,89.71
2018-01-27T04:01:44.436Z,89.49
2018-01-27T04:02:46.917Z,89.48
2018-01-27T04:03:49.405Z,89.76
2018-01-27T04:04:51.872Z,89.85
2018-01-27T04:05:54.350Z,89.76
2018-01-27T04:06:56.826Z,90.06
2018-01-27T04:07:59.390Z,89.96
2018-01-27T04:09:01.873Z,89.92
2018-01-27T04:10:04.335Z,90.18
2018-01-27T04:11:06.820Z,90.36
2018-01-27T04:12:09.286Z,90.66
2018-01-27T04:13:11.770Z,90.63
2018-01-27T04:14:14.253Z,90.95
2018-01-27T04:15:16.730Z,90.50
2018-01-27T04:16:19.194Z,90.39
2018-01-27T04:17:21.676Z,90.43
2018-01-27T04:18:24.138Z,90.69
2018-01-27T04:19:26.608Z,91.23
2018-01-27T04:20:29.080Z,90.46
2018-01-27T04:21:31.560Z,89.84
2018-01-27T04:22:34.043Z,90.33
2018-01-27T04:23:36.539Z,90.37
2018-01-27T04:24:39.017Z,90.20
2018-01-27T04:25:41.493Z,90.09
2018-01-27T04:26:43.972Z,90.21
2018-01-27T04:27:46.458Z,89.98
2018-01-27T04:28:48.941Z,89.89
2018-01-27T04:29:51.422Z,90.07
2018-01-27T04:30:53.899Z,90.37
2018-01-27T04:31:56.385Z,90.09
2018-01-27T04:32:58.866Z,90.05
2018-01-27T04:34:01.349Z,89.93
2018-01-27T04:35:03.819Z,89.94
2018-01-27T04:36:06.290Z,90.16
2018-01-27T04:37:08.768Z,90.25
2018-01-27T04:38:11.258Z,90.48
2018-01-27T04:39:13.733Z,90.50
2018-01-27T04:40:16.212Z,90.87
2018-01-27T04:41:18.686Z,90.40
2018-01-27T04:42:21.162Z,90.40
2018-01-27T04:43:23.627Z,90.43
2018-01-27T04:44:26.090Z,90.20
2018-01-27T04:45:28.546Z,90.38
2018-01-27T04:46:31.007Z,90.66
2018-01-27T04:47:33.505Z,90.93
2018-01-27T04:48:35.969Z,91.32
2018-01-27T04:49:38.461Z,91.22
2018-01-27T04:50:40.922Z,91.01
2018-01-27T04:51:43.409Z,90.56
2018-01-27T04:52:45.901Z,90.76
2018-01-27T04:53:48.367Z,91.02
2018-01-27T04:54:50.849Z,91.42
2018-01-27T04:55:53.325Z,91.47
2018-01-27T04:56:55.790Z,90.96
2018-01-27T04:57:58.256Z,90.65
2018-01-27T04:59:00.737Z,90.94
2018-01-27T05:00:03.216Z,91.07
2018-01-27T05:01:05.697Z,91.11
2018-01-27T05:02:08.182Z,90.60
2018-01-27T05:03:10.664Z,90.54
2018-01-27T05:04:13.126Z,90.78
2018-01-27T05:05:15.664Z,91.09
2018-01-27T05:06:18.144Z,89.89
2018-01-27T05:07:20.641Z,89.78
2018-01-27T05:08:23.122Z,89.77
2018-01-27T05:09:25.586Z,90.28
2018-01-27T05:10:28.077Z,90.00
2018-01-27T05:11:30.561Z,90.01
2018-01-27T05:12:33.040Z,90.23
2018-01-27T05:13:35.538Z,90.23
2018-01-27T05:14:38.028Z,90.58
2018-01-27T05:15:40.522Z,90.62
2018-01-27T05:16:42.992Z,90.76
2018-01-27T05:17:45.472Z,90.87
2018-01-27T05:18:47.953Z,91.15
2018-01-27T05:19:50.461Z,91.36
2018-01-27T05:20:52.945Z,91.54
2018-01-27T05:21:55.428Z,91.65
2018-01-27T05:22:57.896Z,91.67
2018-01-27T05:24:00.376Z,91.81
2018-01-27T05:25:02.843Z,92.00
2018-01-27T05:26:05.328Z,92.14
2018-01-27T05:27:07.814Z,92.27
2018-01-27T05:28:10.305Z,92.42
2018-01-27T05:29:12.766Z,92.76
2018-01-27T05:30:15.244Z,92.25
2018-01-27T05:31:17.722Z,91.24
2018-01-27T05:32:20.189Z,91.15
2018-01-27T05:33:22.706Z,91.31
2018-01-27T05:34:25.195Z,91.26
2018-01-27T05:35:27.658Z,91.63
2018-01-27T05:36:30.136Z,91.17
2018-01-27T05:37:32.606Z,90.75
2018-01-27T05:38:35.088Z,91.01
2018-01-27T05:39:37.620Z,90.61
2018-01-27T05:40:40.069Z,90.61
2018-01-27T05:41:42.549Z,90.83
2018-01-27T05:42:45.025Z,91.13
2018-01-27T05:43:47.492Z,91.65
2018-01-27T05:44:49.972Z,91.50
2018-01-27T05:45:52.457Z,91.13
2018-01-27T05:46:54.940Z,90.85
2018-01-27T05:47:57.421Z,90.85
2018-01-27T05:48:59.886Z,90.71
2018-01-27T05:50:02.377Z,91.00
2018-01-27T05:51:04.845Z,91.46
2018-01-27T05:52:07.310Z,91.58
2018-01-27T05:53:09.779Z,91.80
2018-01-27T05:54:12.261Z,92.23
2018-01-27T05:55:14.752Z,92.52
2018-01-27T05:56:17.249Z,92.11
2018-01-27T05:57:20.549Z,91.66
2018-01-27T05:58:23.055Z,90.82
2018-01-27T05:59:25.572Z,90.66
2018-01-27T06:00:28.058Z,90.71
2018-01-27T06:01:30.546Z,91.00
2018-01-27T06:02:33.011Z,91.41
2018-01-27T06:03:35.493Z,91.99
2018-01-27T06:04:38.013Z,92.28
2018-01-27T06:05:40.462Z,92.15
2018-01-27T06:06:42.941Z,92.03
2018-01-27T06:07:45.425Z,91.37
2018-01-27T06:08:47.890Z,91.74
2018-01-27T06:09:50.358Z,91.75
2018-01-27T06:10:52.832Z,91.79
2018-01-27T06:11:55.298Z,91.47
2018-01-27T06:12:57.776Z,91.29
2018-01-27T06:14:00.328Z,91.71
2018-01-27T06:15:02.794Z,91.99
2018-01-27T06:16:05.269Z,91.59
2018-01-27T06:17:07.749Z,91.63
2018-01-27T06:18:10.228Z,92.10
2018-01-27T06:19:12.709Z,92.31
2018-01-27T06:20:15.193Z,92.21
2018-01-27T06:21:17.669Z,92.27
2018-01-27T06:22:20.191Z,92.57
2018-01-27T06:23:22.658Z,92.58
2018-01-27T06:24:25.145Z,92.49
2018-01-27T06:25:27.621Z,92.37
2018-01-27T06:26:30.101Z,92.56
2018-01-27T06:27:32.570Z,92.88
2018-01-27T06:28:35.040Z,92.69
2018-01-27T06:29:37.524Z,92.45
2018-01-27T06:30:39.986Z,92.42
2018-01-27T06:31:42.446Z,92.68
2018-01-27T06:32:44.960Z,93.09
2018-01-27T06:33:47.452Z,93.82
2018-01-27T06:34:49.915Z,94.16
2018-01-27T06:35:52.396Z,94.56
2018-01-27T06:36:54.868Z,94.56
2018-01-27T06:37:57.348Z,94.77
2018-01-27T06:38:59.832Z,94.60
2018-01-27T06:40:02.303Z,94.51
2018-01-27T06:41:04.782Z,94.77
2018-01-27T06:42:07.247Z,94.94
2018-01-27T06:43:09.723Z,95.25
2018-01-27T06:44:12.190Z,95.58
2018-01-27T06:45:14.664Z,95.80
2018-01-27T06:46:17.152Z,95.59
2018-01-27T06:47:19.627Z,95.00
2018-01-27T06:48:22.141Z,94.33
2018-01-27T06:49:24.606Z,94.06
2018-01-27T06:50:27.092Z,94.14
2018-01-27T06:51:29.577Z,94.11
2018-01-27T06:52:32.066Z,94.31
2018-01-27T06:53:34.542Z,94.58
2018-01-27T06:54:37.014Z,94.98
2018-01-27T06:55:39.516Z,95.44
2018-01-27T06:56:41.983Z,95.62
2018-01-27T06:57:44.470Z,95.80
2018-01-27T06:58:46.955Z,95.99
2018-01-27T06:59:49.421Z,96.24
2018-01-27T07:00:51.912Z,96.47
2018-01-27T07:01:54.383Z,96.63
2018-01-27T07:02:56.869Z,96.47
2018-01-27T07:03:59.353Z,96.42
2018-01-27T07:05:01.848Z,96.43
2018-01-27T07:06:04.315Z,96.19
2018-01-27T07:07:06.816Z,95.56
2018-01-27T07:08:09.283Z,95.28
2018-01-27T07:09:11.754Z,95.25
2018-01-27T07:10:14.237Z,95.34
2018-01-27T07:11:16.725Z,94.80
2018-01-27T07:12:19.214Z,94.47
2018-01-27T07:13:21.691Z,94.52
2018-01-27T07:14:24.173Z,94.68
2018-01-27T07:15:26.662Z,94.90
2018-01-27T07:16:29.145Z,95.14
2018-01-27T07:17:31.624Z,95.28
2018-01-27T07:18:34.101Z,95.47
2018-01-27T07:19:36.588Z,95.61
2018-01-27T07:20:39.060Z,95.72
2018-01-27T07:21:41.523Z,95.81
2018-01-27T07:22:43.990Z,95.30
2018-01-27T07:23:46.479Z,94.05
2018-01-27T07:24:49.000Z,93.46
2018-01-27T07:25:51.544Z,92.41
2018-01-27T07:26:54.027Z,91.81
2018-01-27T07:27:56.490Z,91.82
2018-01-27T07:28:58.954Z,92.28
2018-01-27T07:30:01.423Z,92.12
2018-01-27T07:31:03.900Z,92.12
2018-01-27T07:32:06.384Z,91.85
2018-01-27T07:33:08.865Z,92.19
2018-01-27T07:34:11.341Z,92.42
2018-01-27T07:35:13.826Z,92.63
2018-01-27T07:36:16.304Z,92.60
2018-01-27T07:37:18.774Z,92.45
2018-01-27T07:38:21.401Z,92.41
2018-01-27T07:39:23.876Z,92.82
2018-01-27T07:40:26.358Z,92.95
2018-01-27T07:41:28.929Z,92.88
2018-01-27T07:42:31.395Z,93.39
2018-01-27T07:43:33.884Z,93.82
2018-01-27T07:44:36.367Z,93.95
2018-01-27T07:45:38.834Z,94.08
2018-01-27T07:46:41.298Z,94.06
2018-01-27T07:47:43.770Z,94.02
2018-01-27T07:48:46.242Z,94.07
2018-01-27T07:49:48.716Z,94.01
2018-01-27T07:50:51.193Z,93.61
2018-01-27T07:51:53.661Z,93.46
2018-01-27T07:52:56.127Z,92.98
2018-01-27T07:53:58.625Z,92.79
2018-01-27T07:55:01.103Z,92.96
2018-01-27T07:56:03.638Z,92.98
2018-01-27T07:57:06.103Z,93.02
2018-01-27T07:58:08.579Z,93.25
2018-01-27T07:59:11.057Z,93.23
2018-01-27T08:00:13.541Z,93.29
2018-01-27T08:01:16.011Z,92.79
2018-01-27T08:02:18.493Z,92.82
2018-01-27T08:03:20.965Z,92.79
2018-01-27T08:04:23.452Z,92.08
2018-01-27T08:05:25.922Z,91.46
2018-01-27T08:06:28.426Z,90.82
2018-01-27T08:07:30.912Z,91.38
2018-01-27T08:08:33.407Z,91.78
2018-01-27T08:09:35.912Z,92.23
2018-01-27T08:10:38.406Z,92.42
2018-01-27T08:11:40.896Z,92.72
2018-01-27T08:12:43.422Z,93.06
2018-01-27T08:13:45.935Z,92.90
2018-01-27T08:14:48.430Z,90.76
2018-01-27T08:15:50.935Z,90.25
2018-01-27T08:16:53.464Z,90.01
2018-01-27T08:17:55.969Z,90.00
2018-01-27T08:18:58.488Z,90.36
2018-01-27T08:20:00.964Z,90.83
2018-01-27T08:21:03.462Z,90.16
2018-01-27T08:22:05.968Z,90.70
2018-01-27T08:23:08.448Z,91.06
2018-01-27T08:24:11.027Z,90.28
2018-01-27T08:25:13.547Z,89.87
2018-01-27T08:26:16.041Z,90.03
2018-01-27T08:27:18.512Z,91.06
2018-01-27T08:28:21.033Z,91.34
2018-01-27T08:29:23.576Z,90.31
2018-01-27T08:30:26.131Z,89.22
2018-01-27T08:31:29.212Z,89.27
2018-01-27T08:32:31.740Z,89.21
2018-01-27T08:33:34.255Z,89.41
2018-01-27T08:34:36.759Z,89.25
2018-01-27T08:35:39.264Z,89.67
2018-01-27T08:36:41.769Z,89.75
2018-01-27T08:37:44.276Z,89.93
2018-01-27T08:38:46.751Z,89.98
2018-01-27T08:39:49.244Z,89.36
2018-01-27T08:40:51.722Z,88.35
2018-01-27T08:41:54.190Z,88.25
2018-01-27T08:42:56.667Z,87.09
2018-01-27T08:43:59.200Z,86.77
2018-01-27T08:45:01.654Z,85.75
2018-01-27T08:46:04.130Z,84.36
2018-01-27T08:47:06.605Z,83.31
2018-01-27T08:48:09.076Z,82.46
2018-01-27T08:49:11.571Z,81.57
2018-01-27T08:50:14.035Z,80.21
2018-01-27T08:51:16.517Z,78.37
2018-01-27T08:52:18.983Z,76.65
2018-01-27T08:53:21.478Z,75.87
2018-01-27T08:54:23.941Z,75.05
2018-01-27T08:55:26.407Z,74.47
2018-01-27T08:56:28.876Z,74.03
2018-01-27T08:57:31.340Z,74.17
2018-01-27T08:58:33.803Z,74.02
2018-01-27T08:59:36.270Z,73.69
2018-01-27T09:00:38.748Z,73.94
2018-01-27T09:01:41.237Z,73.01
2018-01-27T09:02:43.702Z,71.63
2018-01-27T09:03:46.171Z,70.79
2018-01-27T09:04:48.656Z,69.85
2018-01-27T09:05:51.149Z,67.27
2018-01-27T09:06:53.619Z,67.77
2018-01-27T09:07:56.088Z,67.40
2018-01-27T09:08:58.571Z,67.01
2018-01-27T09:10:01.039Z,68.24
2018-01-27T09:11:03.536Z,68.65
2018-01-27T09:12:06.029Z,68.27
2018-01-27T09:13:08.517Z,69.41
2018-01-27T09:14:10.982Z,67.61
2018-01-27T09:15:13.465Z,65.71
2018-01-27T09:16:15.950Z,68.43
2018-01-27T09:17:18.453Z,68.74
2018-01-27T09:18:20.927Z,68.08
2018-01-27T09:19:23.395Z,69.58
2018-01-27T09:20:25.858Z,67.88
2018-01-27T09:21:28.322Z,69.11
2018-01-27T09:22:30.804Z,70.64
2018-01-27T09:23:33.329Z,69.99
2018-01-27T09:24:35.840Z,70.03
2018-01-27T09:25:38.318Z,72.23
2018-01-27T09:26:40.782Z,73.83
2018-01-27T09:27:43.250Z,72.75
2018-01-27T09:28:45.714Z,71.72
2018-01-27T09:29:48.178Z,70.40
2018-01-27T09:30:50.647Z,69.30
2018-01-27T09:31:53.129Z,70.69
2018-01-27T09:32:55.598Z,73.15
2018-01-27T09:33:58.081Z,73.60
2018-01-27T09:35:00.561Z,74.52
2018-01-27T09:36:03.032Z,72.94
2018-01-27T09:37:05.525Z,72.16
2018-01-27T09:38:08.001Z,73.60
2018-01-27T09:39:10.467Z,74.85
2018-01-27T09:40:12.930Z,75.28
2018-01-27T09:41:15.404Z,76.34
2018-01-27T09:42:17.884Z,78.66
2018-01-27T09:43:20.367Z,78.60
2018-01-27T09:44:22.848Z,80.17
2018-01-27T09:45:25.330Z,79.20
2018-01-27T09:46:27.813Z,80.00
2018-01-27T09:47:30.290Z,80.63
2018-01-27T09:48:32.776Z,80.13
2018-01-27T09:49:35.287Z,78.79
2018-01-27T09:50:37.768Z,78.62
2018-01-27T09:51:40.253Z,75.90
2018-01-27T09:52:42.723Z,73.00
2018-01-27T09:53:45.251Z,72.59
2018-01-27T09:54:47.728Z,74.22
2018-01-27T09:55:50.210Z,76.16
2018-01-27T09:56:52.695Z,75.84
2018-01-27T09:57:55.183Z,77.47
2018-01-27T09:58:57.657Z,78.00
2018-01-27T10:00:00.135Z,78.86
2018-01-27T10:01:02.598Z,79.38
2018-01-27T10:02:05.072Z,80.12
2018-01-27T10:03:07.538Z,80.29
2018-01-27T10:04:10.003Z,80.59
2018-01-27T10:05:12.466Z,80.29
2018-01-27T10:06:14.931Z,79.91
2018-01-27T10:07:17.417Z,81.88
2018-01-27T10:08:19.879Z,82.06
2018-01-27T10:09:22.362Z,81.47
2018-01-27T10:10:24.877Z,81.19
2018-01-27T10:11:27.342Z,79.81
2018-01-27T10:12:29.807Z,78.72
2018-01-27T10:13:32.280Z,76.67
2018-01-27T10:14:34.757Z,76.14
2018-01-27T10:15:37.234Z,75.95
2018-01-27T10:16:39.707Z,75.46
2018-01-27T10:17:42.175Z,72.96
2018-01-27T10:18:44.668Z,73.71
2018-01-27T10:19:47.150Z,74.15
2018-01-27T10:20:49.631Z,74.24
2018-01-27T10:21:52.104Z,75.97
2018-01-27T10:22:54.571Z,76.54
2018-01-27T10:23:57.055Z,75.05
2018-01-27T10:24:59.527Z,72.91
2018-01-27T10:26:02.006Z,71.44
2018-01-27T10:27:04.504Z,68.93
2018-01-27T10:28:07.002Z,69.43
2018-01-27T10:29:09.475Z,67.78
2018-01-27T10:30:11.966Z,65.32
2018-01-27T10:31:14.431Z,65.48
2018-01-27T10:32:16.918Z,67.20
2018-01-27T10:33:19.402Z,68.10
2018-01-27T10:34:21.895Z,67.03
2018-01-27T10:35:24.367Z,66.98
2018-01-27T10:36:26.843Z,65.41
2018-01-27T10:37:29.329Z,65.62
2018-01-27T10:38:31.799Z,65.89
2018-01-27T10:39:34.281Z,65.19
2018-01-27T10:40:36.766Z,64.26
2018-01-27T10:41:39.239Z,63.50
2018-01-27T10:42:41.745Z,62.77
2018-01-27T10:43:44.219Z,63.39
2018-01-27T10:44:46.686Z,61.78
2018-01-27T10:45:49.154Z,64.52
2018-01-27T10:46:51.641Z,66.44
2018-01-27T10:47:54.161Z,68.54
2018-01-27T10:48:56.645Z,68.68
2018-01-27T10:49:59.155Z,68.82
2018-01-27T10:51:01.652Z,69.05
2018-01-27T10:52:04.123Z,69.86
2018-01-27T10:53:06.591Z,69.30
2018-01-27T10:54:09.058Z,68.95
2018-01-27T10:55:11.536Z,67.32
2018-01-27T10:56:14.008Z,67.88
2018-01-27T10:57:16.483Z,67.45
2018-01-27T10:58:18.979Z,70.08
2018-01-27T10:59:21.446Z,71.96
2018-01-27T11:00:23.926Z,72.69
2018-01-27T11:01:26.398Z,72.20
2018-01-27T11:02:28.866Z,71.81
2018-01-27T11:03:32.073Z,72.16
2018-01-27T11:04:34.539Z,73.81
2018-01-27T11:05:37.006Z,75.12
2018-01-27T11:06:39.471Z,74.36
2018-01-27T11:07:41.957Z,71.72
2018-01-27T11:08:44.441Z,67.06
2018-01-27T11:09:46.911Z,64.18
2018-01-27T11:10:49.384Z,61.45
2018-01-27T11:11:51.855Z,60.18
2018-01-27T11:12:54.324Z,63.91
2018-01-27T11:13:56.847Z,66.08
2018-01-27T11:14:59.317Z,66.94
2018-01-27T11:16:01.810Z,69.40
2018-01-27T11:17:04.289Z,71.27
2018-01-27T11:18:06.772Z,72.44
2018-01-27T11:19:09.295Z,73.44
2018-01-27T11:20:12.855Z,75.09
2018-01-27T11:21:15.400Z,75.42
2018-01-27T11:22:18.693Z,74.60
2018-01-27T11:23:21.159Z,75.29
2018-01-27T11:24:23.637Z,74.91
2018-01-27T11:25:26.148Z,75.78
2018-01-27T11:26:28.644Z,75.38
2018-01-27T11:27:31.125Z,74.60
2018-01-27T11:28:33.595Z,74.29
2018-01-27T11:29:36.058Z,73.69
2018-01-27T11:30:38.527Z,75.16
2018-01-27T11:31:41.027Z,75.87
2018-01-27T11:32:43.555Z,72.62
2018-01-27T11:33:46.031Z,68.29
2018-01-27T11:34:48.536Z,66.30
2018-01-27T11:35:51.042Z,63.20
2018-01-27T11:36:53.554Z,64.05
2018-01-27T11:37:56.070Z,63.90
2018-01-27T11:38:58.614Z,63.07
2018-01-27T11:40:01.296Z,64.05
2018-01-27T11:41:04.244Z,66.18
2018-01-27T11:42:06.727Z,66.47
2018-01-27T11:43:09.220Z,66.58
2018-01-27T11:44:11.723Z,68.86
2018-01-27T11:45:14.213Z,69.25
2018-01-27T11:46:16.753Z,69.80
2018-01-27T11:47:19.253Z,72.28
2018-01-27T11:48:21.751Z,71.63
2018-01-27T11:49:24.230Z,71.59
2018-01-27T11:50:26.733Z,68.82
2018-01-27T11:51:29.235Z,66.41
2018-01-27T11:52:31.714Z,61.62
2018-01-27T11:53:34.209Z,60.96
2018-01-27T11:54:36.776Z,62.64
2018-01-27T11:55:39.246Z,66.67
2018-01-27T11:56:41.742Z,67.24
2018-01-27T11:57:44.233Z,68.28
2018-01-27T11:58:46.725Z,68.74
2018-01-27T11:59:49.199Z,66.39
2018-01-27T12:00:51.685Z,67.29
2018-01-27T12:01:54.155Z,68.85
2018-01-27T12:02:56.628Z,67.86
2018-01-27T12:03:59.117Z,67.10
2018-01-27T12:05:01.592Z,64.42
2018-01-27T12:06:04.076Z,62.00
2018-01-27T12:07:06.562Z,61.65
2018-01-27T12:08:09.027Z,60.98
2018-01-27T12:09:11.515Z,62.23
2018-01-27T12:10:13.991Z,64.51
2018-01-27T12:11:16.474Z,63.80
2018-01-27T12:12:18.962Z,61.97
2018-01-27T12:13:21.459Z,60.30
2018-01-27T12:14:23.951Z,58.27
2018-01-27T12:15:26.437Z,55.25
2018-01-27T12:16:28.922Z,52.62
2018-01-27T12:17:31.396Z,51.91
2018-01-27T12:18:33.885Z,50.76
2018-01-27T12:19:36.404Z,47.72
2018-01-27T12:20:38.921Z,49.87
2018-01-27T12:21:41.478Z,51.10
2018-01-27T12:22:43.945Z,49.37
2018-01-27T12:23:46.433Z,46.87
2018-01-27T12:24:48.903Z,46.33
2018-01-27T12:25:51.410Z,47.33
2018-01-27T12:26:53.892Z,44.97
2018-01-27T12:27:56.381Z,45.90
2018-01-27T12:28:58.878Z,43.54
2018-01-27T12:30:01.450Z,42.06
2018-01-27T12:31:04.160Z,40.55
2018-01-27T12:32:06.655Z,39.65
2018-01-27T12:33:09.151Z,39.97
2018-01-27T12:34:11.638Z,40.09
2018-01-27T12:35:14.181Z,39.90
2018-01-27T12:36:16.665Z,40.82
2018-01-27T12:37:19.153Z,41.22
2018-01-27T12:38:21.629Z,43.53
2018-01-27T12:39:24.111Z,40.95
2018-01-27T12:40:26.608Z,39.87
2018-01-27T12:41:29.097Z,43.54
2018-01-27T12:42:31.584Z,46.50
2018-01-27T12:43:34.059Z,45.82
2018-01-27T12:44:36.543Z,46.13
2018-01-27T12:45:39.050Z,47.51
2018-01-27T12:46:41.527Z,45.66
2018-01-27T12:47:44.003Z,44.48
2018-01-27T12:48:46.479Z,47.06
2018-01-27T12:49:48.960Z,48.42
2018-01-27T12:50:51.427Z,47.36
2018-01-27T12:51:53.903Z,47.80
2018-01-27T12:52:56.389Z,49.08
2018-01-27T12:53:58.880Z,48.86
2018-01-27T12:55:01.355Z,46.84
2018-01-27T12:56:03.827Z,43.98
2018-01-27T12:57:06.404Z,42.78
2018-01-27T12:58:08.918Z,40.90
2018-01-27T12:59:11.380Z,44.67
2018-01-27T13:00:13.877Z,44.92
2018-01-27T13:01:16.347Z,50.79
2018-01-27T13:02:18.823Z,52.29
2018-01-27T13:03:21.312Z,54.26
2018-01-27T13:04:23.778Z,53.03
2018-01-27T13:05:26.268Z,54.97
2018-01-27T13:06:28.761Z,55.82
2018-01-27T13:07:31.249Z,57.63
2018-01-27T13:08:33.737Z,54.68
2018-01-27T13:09:36.238Z,53.80
2018-01-27T13:10:38.707Z,54.53
2018-01-27T13:11:41.175Z,54.94
2018-01-27T13:12:43.661Z,56.58
2018-01-27T13:13:46.132Z,54.15
2018-01-27T13:14:48.609Z,50.50
2018-01-27T13:15:51.098Z,47.12
2018-01-27T13:16:53.593Z,44.30
2018-01-27T13:17:56.072Z,46.05
2018-01-27T13:18:58.586Z,48.60
2018-01-27T13:20:01.087Z,50.24
2018-01-27T13:21:03.669Z,53.68
2018-01-27T13:22:06.167Z,55.16
2018-01-27T13:23:12.255Z,56.57
2018-01-27T13:24:14.862Z,59.46
2018-01-27T13:25:17.410Z,61.70